Time;durP1;ratioP1;P1;durP2;ratioP2;P2;SDS_P1;SDS_P2;PMS_P1;PMS_P2;Temp;Humidity;BMP_temperature;BMP_pressure;BME280_temperature;BME280_humidity;BME280_pressure;Samples;Min_cycle;Max_cycle;Signal;HPM_P1;HPM_P2
2023/08/20 00:00:47;;;;;;;12.35;8.57;;;17.90;99.90;;;;;;5088825;28;20181;-75
2023/08/20 00:03:18;;;;;;;30.45;20.88;;;18.00;99.90;;;;;;5075509;28;20221;-77
2023/08/20 00:05:49;;;;;;;36.05;26.58;;;18.10;99.90;;;;;;5076402;28;20196;-76
2023/08/20 00:08:20;;;;;;;6.93;4.90;;;18.20;99.90;;;;;;5075381;28;20193;-77
2023/08/20 00:10:51;;;;;;;6.13;4.57;;;18.30;99.90;;;;;;5075143;28;20228;-77
2023/08/20 00:13:24;;;;;;;1.35;1.10;;;18.40;99.90;;;;;;5074517;28;20243;-75
2023/08/20 00:15:55;;;;;;;1.48;1.38;;;18.50;99.90;;;;;;5077046;28;20253;-74
2023/08/20 00:18:27;;;;;;;1.85;1.65;;;18.60;99.90;;;;;;5095384;28;20193;-76
2023/08/20 00:20:58;;;;;;;0.82;0.73;;;18.70;99.90;;;;;;5095372;28;20203;-76
2023/08/20 00:23:29;;;;;;;0.20;0.20;;;18.90;99.90;;;;;;5095358;28;20269;-75
2023/08/20 00:26:02;;;;;;;0.28;0.28;;;19.00;99.90;;;;;;5082976;28;20189;-76
2023/08/20 00:28:36;;;;;;;0.30;0.30;;;19.10;99.90;;;;;;5090423;28;20675;-74
2023/08/20 00:31:07;;;;;;;0.40;0.20;;;19.20;99.90;;;;;;5094913;28;20644;-75
2023/08/20 00:33:38;;;;;;;0.85;0.40;;;19.20;99.90;;;;;;5092263;28;20200;-73
2023/08/20 00:36:09;;;;;;;0.25;0.25;;;19.20;99.90;;;;;;5083448;28;20193;-74
2023/08/20 00:38:40;;;;;;;1.95;0.30;;;19.30;99.90;;;;;;5094897;28;20644;-75
2023/08/20 00:41:11;;;;;;;0.30;0.30;;;19.40;99.90;;;;;;5095196;28;20245;-75
2023/08/20 00:43:44;;;;;;;0.20;0.20;;;19.50;99.90;;;;;;5080567;28;20250;-75
2023/08/20 00:46:15;;;;;;;0.52;0.30;;;19.60;99.90;;;;;;5093183;28;20200;-74
2023/08/20 00:48:46;;;;;;;0.40;0.40;;;19.60;99.90;;;;;;5094738;28;20238;-75
2023/08/20 00:51:17;;;;;;;0.30;0.30;;;19.70;99.90;;;;;;5094574;28;20192;-75
2023/08/20 00:53:48;;;;;;;0.40;0.30;;;19.80;99.90;;;;;;5087618;28;20205;-75
2023/08/20 00:56:20;;;;;;;1.92;1.35;;;19.90;99.90;;;;;;5074466;28;20189;-76
2023/08/20 00:58:53;;;;;;;3.38;2.55;;;20.00;99.90;;;;;;5074119;28;20720;-75
2023/08/20 01:01:25;;;;;;;1.52;1.15;;;20.10;99.90;;;;;;5089801;28;20188;-75
2023/08/20 01:03:56;;;;;;;0.45;0.40;;;20.20;99.90;;;;;;5086388;28;20213;-75
2023/08/20 01:06:38;;;;;;;0.32;0.32;;;20.40;99.90;;;;;;5074535;28;20238;-75
2023/08/20 01:09:18;;;;;;;2.00;0.95;;;20.40;99.90;;;;;;5079300;28;20185;-75
2023/08/20 01:11:54;;;;;;;1.88;0.90;;;20.40;99.90;;;;;;5092292;28;20227;-75
2023/08/20 01:14:27;;;;;;;1.23;0.60;;;20.50;99.90;;;;;;5094426;28;20188;-76
2023/08/20 01:16:58;;;;;;;0.57;0.45;;;20.50;99.90;;;;;;5094259;28;20246;-77
2023/08/20 01:19:29;;;;;;;0.98;0.70;;;20.60;99.90;;;;;;5084837;28;20197;-76
2023/08/20 01:22:34;;;;;;;0.30;0.30;;;20.80;99.90;;;;;;5075668;28;20247;-75
2023/08/20 01:25:14;;;;;;;0.50;0.50;;;20.90;99.90;;;;;;5078284;28;20212;-77
2023/08/20 01:27:55;;;;;;;0.52;0.40;;;21.00;99.90;;;;;;5083089;28;20200;-77
2023/08/20 01:30:29;;;;;;;7.40;0.82;;;21.00;99.90;;;;;;5081397;28;20193;-76
2023/08/20 01:33:02;;;;;;;0.30;0.30;;;21.00;99.90;;;;;;5074180;28;20726;-74
2023/08/20 01:35:33;;;;;;;0.63;0.40;;;21.10;99.90;;;;;;5083379;28;20196;-75
2023/08/20 01:38:04;;;;;;;0.57;0.40;;;21.10;99.90;;;;;;5085644;28;20196;-75
2023/08/20 01:40:38;;;;;;;0.70;0.40;;;21.20;99.90;;;;;;5079857;28;20193;-75
2023/08/20 01:43:09;;;;;;;1.35;0.50;;;21.20;99.90;;;;;;5083692;28;20196;-75
2023/08/20 01:45:42;;;;;;;0.40;0.40;;;21.20;99.90;;;;;;5091745;28;20232;-74
2023/08/20 01:48:13;;;;;;;0.40;0.40;;;21.20;99.90;;;;;;5084560;28;20293;-76
2023/08/20 01:50:44;;;;;;;0.50;0.40;;;21.30;99.90;;;;;;5082184;28;20196;-73
2023/08/20 01:53:15;;;;;;;0.50;0.30;;;21.40;99.90;;;;;;5084905;28;20195;-75
2023/08/20 01:55:46;;;;;;;1.77;0.30;;;21.40;99.90;;;;;;5073751;28;20238;-75
2023/08/20 01:58:17;;;;;;;0.50;0.40;;;21.60;99.90;;;;;;5074387;28;20224;-76
2023/08/20 02:00:50;;;;;;;1.45;0.40;;;21.70;99.90;;;;;;5073679;28;20655;-76
2023/08/20 02:03:21;;;;;;;0.45;0.43;;;21.80;99.90;;;;;;5077660;28;20192;-74
2023/08/20 02:05:52;;;;;;;0.45;0.32;;;21.70;99.90;;;;;;5075756;28;20266;-75
2023/08/20 02:08:23;;;;;;;1.00;0.90;;;21.70;99.90;;;;;;5077410;28;20611;-74
2023/08/20 02:11:01;;;;;;;1.50;0.40;;;21.70;99.90;;;;;;5077926;28;20236;-75
2023/08/20 02:13:33;;;;;;;1.10;0.30;;;21.80;99.90;;;;;;5090308;28;20651;-74
2023/08/20 02:16:07;;;;;;;2.92;1.60;;;21.80;99.90;;;;;;5085903;28;20196;-75
2023/08/20 02:18:38;;;;;;;3.20;1.77;;;21.80;99.90;;;;;;5092315;28;20207;-73
2023/08/20 02:21:09;;;;;;;0.85;0.68;;;21.80;99.90;;;;;;5081503;28;20203;-76
2023/08/20 02:23:40;;;;;;;0.52;0.50;;;21.80;99.90;;;;;;5091290;28;20640;-76
2023/08/20 02:26:11;;;;;;;0.25;0.25;;;21.90;99.90;;;;;;5074221;28;20201;-76
2023/08/20 02:28:42;;;;;;;0.50;0.50;;;21.90;99.90;;;;;;5072885;28;20193;-75
2023/08/20 02:31:15;;;;;;;1.48;0.40;;;21.80;99.90;;;;;;5081132;28;20245;-76
2023/08/20 02:33:46;;;;;;;0.40;0.40;;;21.90;99.90;;;;;;5093142;28;20196;-75
2023/08/20 02:36:17;;;;;;;1.73;1.20;;;21.90;99.90;;;;;;5096541;28;20188;-75
2023/08/20 02:38:49;;;;;;;0.95;0.90;;;22.00;99.90;;;;;;5097412;28;20188;-75
2023/08/20 02:41:20;;;;;;;0.60;0.50;;;22.10;99.90;;;;;;5096161;28;20652;-76
2023/08/20 02:43:51;;;;;;;1.20;1.10;;;22.00;99.90;;;;;;5097822;28;20192;-76
2023/08/20 02:46:24;;;;;;;0.88;0.63;;;22.00;99.90;;;;;;5095746;28;20192;-75
2023/08/20 02:48:55;;;;;;;0.30;0.30;;;22.10;99.90;;;;;;5096849;28;20188;-76
2023/08/20 02:51:26;;;;;;;1.48;1.23;;;22.10;99.90;;;;;;5095142;28;20188;-75
2023/08/20 02:53:57;;;;;;;0.52;0.40;;;22.20;99.90;;;;;;5097093;28;20188;-76
2023/08/20 02:56:28;;;;;;;0.80;0.80;;;22.20;99.90;;;;;;5097246;28;20188;-75
2023/08/20 02:58:59;;;;;;;1.50;1.20;;;22.20;99.90;;;;;;5095316;28;20265;-75
2023/08/20 03:01:32;;;;;;;0.50;0.40;;;22.30;99.90;;;;;;5094861;28;20192;-76
2023/08/20 03:04:03;;;;;;;0.70;0.70;;;22.20;99.90;;;;;;5096828;28;20243;-76
2023/08/20 03:06:34;;;;;;;0.88;0.70;;;22.30;99.90;;;;;;5096912;28;20195;-75
2023/08/20 03:09:06;;;;;;;1.13;0.50;;;22.30;99.90;;;;;;5084536;28;20189;-76
2023/08/20 03:11:37;;;;;;;0.63;0.50;;;22.30;99.90;;;;;;5077542;28;20654;-78
2023/08/20 03:14:08;;;;;;;0.40;0.40;;;22.30;99.90;;;;;;5077009;28;20262;-78
2023/08/20 03:16:41;;;;;;;0.65;0.65;;;22.30;99.90;;;;;;5076364;28;20196;-75
2023/08/20 03:19:11;;;;;;;0.40;0.40;;;22.30;99.90;;;;;;5084552;28;20188;-78
2023/08/20 03:21:42;;;;;;;1.02;0.70;;;22.30;99.90;;;;;;5077011;28;20197;-78
2023/08/20 03:24:13;;;;;;;2.47;1.48;;;22.20;99.90;;;;;;5076020;28;20193;-77
2023/08/20 03:26:46;;;;;;;3.63;2.40;;;22.30;99.90;;;;;;5076499;28;20193;-76
2023/08/20 03:29:17;;;;;;;1.90;1.38;;;22.30;99.90;;;;;;5085558;28;20200;-76
2023/08/20 03:31:50;;;;;;;0.65;0.60;;;22.30;99.90;;;;;;5096390;28;20188;-78
2023/08/20 03:34:21;;;;;;;0.60;0.45;;;22.30;99.90;;;;;;5094538;28;20191;-78
2023/08/20 03:36:51;;;;;;;0.30;0.30;;;22.30;99.90;;;;;;5096522;28;20196;-78
2023/08/20 03:39:22;;;;;;;1.00;0.60;;;22.20;99.90;;;;;;5095754;28;20242;-79
2023/08/20 03:41:54;;;;;;;0.75;0.40;;;22.20;99.90;;;;;;5096026;28;20540;-77
2023/08/20 03:44:25;;;;;;;0.88;0.50;;;22.20;99.90;;;;;;5086242;28;20192;-78
2023/08/20 03:46:58;;;;;;;1.13;0.52;;;22.20;99.90;;;;;;5080831;28;20188;-78
2023/08/20 03:49:29;;;;;;;0.35;0.35;;;22.10;99.90;;;;;;5095851;28;20244;-76
2023/08/20 03:52:01;;;;;;;0.82;0.40;;;22.20;99.90;;;;;;5094107;28;20193;-76
2023/08/20 03:54:32;;;;;;;0.60;0.40;;;22.20;99.90;;;;;;5075531;28;20196;-77
2023/08/20 03:57:03;;;;;;;0.50;0.50;;;22.20;99.90;;;;;;5074254;28;20219;-76
2023/08/20 03:59:34;;;;;;;0.70;0.50;;;22.10;99.90;;;;;;5075667;28;20216;-76
2023/08/20 04:02:07;;;;;;;0.52;0.40;;;22.10;99.90;;;;;;5075199;28;20239;-75
2023/08/20 04:04:39;;;;;;;0.65;0.50;;;22.00;99.90;;;;;;5095228;28;20265;-77
2023/08/20 04:07:10;;;;;;;0.40;0.40;;;22.00;99.90;;;;;;5095405;28;20280;-77
2023/08/20 04:09:42;;;;;;;0.40;0.40;;;22.00;99.90;;;;;;5091573;28;20180;-77
2023/08/20 04:12:13;;;;;;;1.88;0.60;;;22.10;99.90;;;;;;5087151;28;20621;-79
2023/08/20 04:14:44;;;;;;;0.75;0.45;;;22.10;99.90;;;;;;5091326;28;20197;-79
2023/08/20 04:17:17;;;;;;;0.80;0.57;;;22.00;99.90;;;;;;5084992;28;20196;-79
2023/08/20 04:19:48;;;;;;;0.82;0.40;;;21.80;99.90;;;;;;5095471;28;20283;-77
2023/08/20 04:22:19;;;;;;;1.15;0.50;;;21.80;99.90;;;;;;5080599;28;20668;-78
2023/08/20 04:24:50;;;;;;;2.67;0.40;;;21.80;99.90;;;;;;5086055;28;20600;-77
2023/08/20 04:27:21;;;;;;;0.95;0.30;;;21.80;99.90;;;;;;5086726;28;20189;-78
2023/08/20 04:29:52;;;;;;;0.65;0.43;;;21.70;99.90;;;;;;5095007;28;20196;-79
2023/08/20 04:32:25;;;;;;;1.63;0.50;;;21.60;99.90;;;;;;5074899;28;20196;-78
2023/08/20 04:34:56;;;;;;;1.15;0.40;;;21.50;99.90;;;;;;5073919;28;20238;-77
2023/08/20 04:37:27;;;;;;;1.13;0.60;;;21.40;99.90;;;;;;5080870;28;20254;-77
2023/08/20 04:39:58;;;;;;;0.77;0.28;;;21.30;99.90;;;;;;5094796;28;20242;-78
2023/08/20 04:42:29;;;;;;;0.50;0.30;;;21.20;99.90;;;;;;5084554;28;20235;-79
2023/08/20 04:45:00;;;;;;;0.50;0.47;;;21.10;99.90;;;;;;5088605;28;20216;-78
2023/08/20 04:47:33;;;;;;;0.30;0.30;;;20.90;99.90;;;;;;5074783;28;20211;-76
2023/08/20 04:50:06;;;;;;;0.32;0.25;;;20.80;99.90;;;;;;5083791;28;20238;-76
2023/08/20 04:52:37;;;;;;;0.20;0.20;;;20.80;99.90;;;;;;5094020;28;20188;-75
2023/08/20 04:55:09;;;;;;;1.02;0.30;;;20.70;99.90;;;;;;5078941;28;20246;-78
2023/08/20 04:57:39;;;;;;;0.30;0.30;;;20.60;99.90;;;;;;5075218;28;20213;-76
2023/08/20 05:00:11;;;;;;;0.60;0.40;;;20.60;99.90;;;;;;5085985;28;20184;-76
2023/08/20 05:02:44;;;;;;;0.40;0.40;;;20.60;99.90;;;;;;5074352;28;20204;-76
2023/08/20 05:05:16;;;;;;;0.98;0.40;;;20.70;99.90;;;;;;5090801;28;20261;-76
2023/08/20 05:07:48;;;;;;;0.52;0.30;;;20.70;99.90;;;;;;5089237;28;20586;-76
2023/08/20 05:10:20;;;;;;;0.52;0.30;;;20.60;99.90;;;;;;5074013;28;20251;-77
2023/08/20 05:12:51;;;;;;;0.55;0.35;;;20.50;99.90;;;;;;5074382;28;20189;-77
2023/08/20 05:15:22;;;;;;;0.30;0.30;;;20.50;99.90;;;;;;5079648;28;20200;-78
2023/08/20 05:17:55;;;;;;;0.38;0.28;;;20.40;99.90;;;;;;5074633;28;20275;-77
2023/08/20 05:20:27;;;;;;;0.98;0.30;;;20.30;99.90;;;;;;5074049;28;20193;-77
2023/08/20 05:22:58;;;;;;;1.40;0.30;;;20.40;99.90;;;;;;5074650;28;20185;-77
2023/08/20 05:25:29;;;;;;;1.80;0.43;;;20.40;99.90;;;;;;5077338;28;20260;-77
2023/08/20 05:28:00;;;;;;;1.58;0.35;;;20.30;99.90;;;;;;5079777;28;20276;-76
2023/08/20 05:30:31;;;;;;;0.88;0.40;;;20.30;99.90;;;;;;5075169;28;20185;-80
2023/08/20 05:33:04;;;;;;;1.33;0.40;;;20.20;99.90;;;;;;5093842;28;20188;-81
2023/08/20 05:35:35;;;;;;;0.40;0.30;;;20.20;99.90;;;;;;5093984;28;20188;-77
2023/08/20 05:38:06;;;;;;;1.05;0.30;;;20.20;99.90;;;;;;5094038;28;20230;-79
2023/08/20 05:40:37;;;;;;;1.40;0.30;;;20.10;99.90;;;;;;5093959;28;20241;-78
2023/08/20 05:43:09;;;;;;;0.40;0.30;;;20.10;99.90;;;;;;5088835;28;20185;-78
2023/08/20 05:45:40;;;;;;;0.35;0.30;;;20.00;99.90;;;;;;5073614;28;20221;-78
2023/08/20 05:48:13;;;;;;;0.63;0.38;;;19.90;99.90;;;;;;5076203;28;20204;-76
2023/08/20 05:50:44;;;;;;;0.40;0.40;;;19.90;99.90;;;;;;5073746;28;20192;-77
2023/08/20 05:53:15;;;;;;;1.10;0.50;;;19.90;99.90;;;;;;5079445;28;20684;-79
2023/08/20 05:55:45;;;;;;;1.52;0.45;;;19.90;99.90;;;;;;5078459;28;20197;-79
2023/08/20 05:58:16;;;;;;;1.45;0.30;;;20.00;99.90;;;;;;5073751;28;20223;-77
2023/08/20 06:00:47;;;;;;;0.50;0.38;;;19.90;99.90;;;;;;5073613;28;20189;-79
2023/08/20 06:03:19;;;;;;;0.82;0.30;;;19.90;99.90;;;;;;5081366;28;20199;-78
2023/08/20 06:05:50;;;;;;;0.50;0.40;;;19.90;99.90;;;;;;5087108;28;20208;-77
2023/08/20 06:08:21;;;;;;;1.85;0.50;;;19.80;99.90;;;;;;5086018;28;20196;-77
2023/08/20 06:10:52;;;;;;;0.30;0.30;;;19.70;99.90;;;;;;5087993;28;20311;-78
2023/08/20 06:13:23;;;;;;;0.60;0.30;;;19.60;99.90;;;;;;5090295;28;20199;-79
2023/08/20 06:15:53;;;;;;;8.23;0.57;;;19.60;99.90;;;;;;5083385;28;20536;-78
2023/08/20 06:18:26;;;;;;;1.02;0.28;;;19.60;99.90;;;;;;5073161;28;20557;-78
2023/08/20 06:20:57;;;;;;;1.65;0.30;;;19.50;99.90;;;;;;5080268;28;20196;-80
2023/08/20 06:23:27;;;;;;;0.75;0.32;;;19.50;99.90;;;;;;5091593;28;20658;-79
2023/08/20 06:25:58;;;;;;;1.00;0.50;;;19.50;99.90;;;;;;5084584;28;20683;-78
2023/08/20 06:28:29;;;;;;;1.13;0.50;;;19.50;99.90;;;;;;5081210;28;20196;-78
2023/08/20 06:30:59;;;;;;;1.52;0.40;;;19.50;99.90;;;;;;5093251;28;20191;-81
2023/08/20 06:33:32;;;;;;;0.60;0.40;;;19.40;99.90;;;;;;5092942;28;20668;-79
2023/08/20 06:36:03;;;;;;;0.30;0.30;;;19.40;99.90;;;;;;5075961;28;20739;-83
2023/08/20 06:38:34;;;;;;;0.20;0.20;;;19.20;99.90;;;;;;5073216;28;20192;-83
2023/08/20 06:41:04;;;;;;;0.30;0.30;;;19.10;99.90;;;;;;5077019;28;20205;-86
2023/08/20 06:43:35;;;;;;;0.68;0.30;;;19.00;99.90;;;;;;5088067;28;20245;-87
2023/08/20 06:46:06;;;;;;;2.10;0.32;;;18.90;99.90;;;;;;5081864;28;20242;-81
2023/08/20 06:48:39;;;;;;;1.50;0.40;;;18.80;99.90;;;;;;5072436;28;20649;-74
2023/08/20 06:51:15;;;;;;;0.60;0.60;;;18.80;99.90;;;;;;5079950;28;20189;-82
2023/08/20 06:53:46;;;;;;;0.50;0.38;;;18.70;99.90;;;;;;5081065;28;20201;-79
2023/08/20 06:56:16;;;;;;;0.45;0.40;;;18.70;99.90;;;;;;5078856;28;20196;-76
2023/08/20 06:58:47;;;;;;;1.08;0.40;;;18.70;99.90;;;;;;5078491;28;20223;-82
2023/08/20 07:01:18;;;;;;;1.13;0.50;;;18.60;99.90;;;;;;5077164;28;20540;-83
2023/08/20 07:03:51;;;;;;;0.60;0.30;;;18.60;99.90;;;;;;5086752;28;20211;-82
2023/08/20 07:06:21;;;;;;;0.45;0.40;;;18.50;99.90;;;;;;5089799;28;20235;-80
2023/08/20 07:08:52;;;;;;;0.75;0.40;;;18.40;99.90;;;;;;5087036;28;20232;-81
2023/08/20 07:11:23;;;;;;;0.77;0.43;;;18.30;99.90;;;;;;5074467;28;20236;-81
2023/08/20 07:13:54;;;;;;;0.98;0.50;;;18.20;99.90;;;;;;5084315;28;20189;-81
2023/08/20 07:16:25;;;;;;;1.08;0.50;;;18.20;99.90;;;;;;5085518;28;20279;-82
2023/08/20 07:18:57;;;;;;;0.80;0.55;;;18.10;99.90;;;;;;5084533;28;20198;-80
2023/08/20 07:21:28;;;;;;;0.95;0.55;;;18.10;99.90;;;;;;5090463;28;20542;-81
2023/08/20 07:23:59;;;;;;;1.42;0.52;;;18.00;99.90;;;;;;5084555;28;20572;-80
2023/08/20 07:26:29;;;;;;;2.10;0.50;;;18.00;99.90;;;;;;5091047;28;20730;-80
2023/08/20 07:29:00;;;;;;;0.85;0.47;;;17.90;99.90;;;;;;5083431;28;20196;-81
2023/08/20 07:31:32;;;;;;;0.50;0.50;;;17.90;99.90;;;;;;5094402;28;20200;-82
2023/08/20 07:34:05;;;;;;;0.40;0.40;;;17.80;99.90;;;;;;5088427;28;21839;-80
2023/08/20 07:36:36;;;;;;;0.40;0.40;;;17.80;99.90;;;;;;5077325;28;20196;-80
2023/08/20 07:39:08;;;;;;;1.52;1.00;;;17.80;99.90;;;;;;5077145;28;20549;-81
2023/08/20 07:41:39;;;;;;;5.50;1.27;;;17.70;99.90;;;;;;5088264;28;20208;-86
2023/08/20 07:44:10;;;;;;;1.17;0.70;;;17.70;99.90;;;;;;5088037;28;20282;-80
2023/08/20 07:46:40;;;;;;;0.60;0.43;;;17.60;99.90;;;;;;5085058;28;20208;-79
2023/08/20 07:49:13;;;;;;;0.50;0.50;;;17.60;99.90;;;;;;5080610;28;20199;-79
2023/08/20 07:51:44;;;;;;;0.40;0.40;;;17.60;99.90;;;;;;5075202;28;20195;-79
2023/08/20 07:54:14;;;;;;;3.13;0.50;;;17.50;99.90;;;;;;5075374;28;20679;-79
2023/08/20 07:56:45;;;;;;;1.55;0.60;;;17.50;99.90;;;;;;5076651;28;20188;-79
2023/08/20 07:59:16;;;;;;;2.08;0.50;;;17.50;99.90;;;;;;5076439;28;20188;-76
2023/08/20 08:01:47;;;;;;;1.70;0.60;;;17.40;99.90;;;;;;5088158;28;20198;-77
2023/08/20 08:04:19;;;;;;;1.33;0.57;;;17.40;99.90;;;;;;5095157;28;20194;-80
2023/08/20 08:06:50;;;;;;;1.10;0.43;;;17.40;99.90;;;;;;5076236;28;20223;-78
2023/08/20 08:09:28;;;;;;;2.88;0.75;;;17.40;99.90;;;;;;5081448;28;20712;-78
2023/08/20 08:11:59;;;;;;;1.77;0.60;;;17.30;99.90;;;;;;5086869;28;20714;-78
2023/08/20 08:14:29;;;;;;;1.45;0.50;;;17.30;99.90;;;;;;5092489;28;20774;-79
2023/08/20 08:17:00;;;;;;;2.45;0.63;;;17.30;99.90;;;;;;5088610;28;20207;-80
2023/08/20 08:19:33;;;;;;;0.93;0.60;;;17.20;99.90;;;;;;5088624;28;20196;-79
2023/08/20 08:22:04;;;;;;;1.77;0.60;;;17.20;99.90;;;;;;5083865;28;20200;-79
2023/08/20 08:24:35;;;;;;;2.53;1.05;;;17.20;99.90;;;;;;5077602;28;20218;-79
2023/08/20 08:27:05;;;;;;;1.00;0.90;;;17.10;99.90;;;;;;5095202;28;20216;-80
2023/08/20 08:29:36;;;;;;;2.38;1.10;;;17.10;99.90;;;;;;5087092;28;20192;-77
2023/08/20 08:32:07;;;;;;;3.42;0.70;;;17.10;99.90;;;;;;5088616;28;20219;-80
2023/08/20 08:34:42;;;;;;;2.42;0.70;;;17.10;99.90;;;;;;5083733;28;20276;-78
2023/08/20 08:37:13;;;;;;;0.90;0.60;;;17.00;99.90;;;;;;5080743;28;20203;-80
2023/08/20 08:39:44;;;;;;;2.55;0.77;;;17.00;99.90;;;;;;5075413;28;20199;-79
2023/08/20 08:42:17;;;;;;;1.02;0.80;;;17.00;99.90;;;;;;5083654;28;20215;-78
2023/08/20 08:44:48;;;;;;;1.75;0.88;;;17.00;99.90;;;;;;5078558;28;20199;-80
2023/08/20 08:47:19;;;;;;;1.33;0.90;;;17.00;99.90;;;;;;5075432;28;20224;-80
2023/08/20 08:49:52;;;;;;;1.10;0.75;;;16.90;99.90;;;;;;5081856;28;20202;-79
2023/08/20 08:52:23;;;;;;;1.67;1.00;;;16.90;99.90;;;;;;5091745;28;20200;-80
2023/08/20 08:54:55;;;;;;;0.88;0.85;;;16.90;99.90;;;;;;5094311;28;20196;-79
2023/08/20 08:57:25;;;;;;;2.30;1.10;;;16.80;99.90;;;;;;5079898;28;20220;-80
2023/08/20 08:59:56;;;;;;;1.70;1.00;;;16.80;99.90;;;;;;5079688;28;20192;-79
2023/08/20 09:02:27;;;;;;;1.42;0.98;;;16.70;99.90;;;;;;5077009;28;20193;-80
2023/08/20 09:05:00;;;;;;;2.20;1.15;;;16.70;99.90;;;;;;5076987;28;20557;-79
2023/08/20 09:07:31;;;;;;;0.98;0.80;;;16.70;99.90;;;;;;5075751;28;20219;-79
2023/08/20 09:10:02;;;;;;;3.45;1.02;;;16.60;99.90;;;;;;5082309;28;20200;-80
2023/08/20 09:12:38;;;;;;;1.95;1.05;;;16.60;99.90;;;;;;5079313;28;20207;-79
2023/08/20 09:15:14;;;;;;;2.97;0.90;;;16.50;99.90;;;;;;5084925;28;20588;-78
2023/08/20 09:17:45;;;;;;;1.85;1.02;;;16.50;99.90;;;;;;5074471;28;20202;-75
2023/08/20 09:20:18;;;;;;;1.40;1.10;;;16.40;99.90;;;;;;5073572;28;20204;-77
2023/08/20 09:22:57;;;;;;;1.65;1.23;;;16.40;99.90;;;;;;5075861;28;20274;-76
2023/08/20 09:25:32;;;;;;;4.22;1.25;;;16.40;99.90;;;;;;5078796;28;20228;-78
2023/08/20 09:28:06;;;;;;;2.30;1.20;;;16.40;99.90;;;;;;5080050;28;20318;-76
2023/08/20 09:30:39;;;;;;;4.07;1.65;;;16.40;99.90;;;;;;5081535;28;20655;-77
2023/08/20 09:33:14;;;;;;;5.57;2.35;;;16.30;99.90;;;;;;5073182;28;20209;-77
2023/08/20 09:35:53;;;;;;;3.60;1.90;;;16.40;99.90;;;;;;5079856;28;20568;-77
2023/08/20 09:38:25;;;;;;;3.38;1.67;;;16.40;99.90;;;;;;5087175;28;20231;-77
2023/08/20 09:40:58;;;;;;;2.80;2.05;;;16.40;99.90;;;;;;5076859;28;20189;-77
2023/08/20 09:43:32;;;;;;;3.90;1.80;;;16.40;99.90;;;;;;5091597;28;20629;-77
2023/08/20 09:46:06;;;;;;;3.08;1.80;;;16.40;99.90;;;;;;5082156;28;20214;-77
2023/08/20 09:48:41;;;;;;;2.78;1.50;;;16.40;99.90;;;;;;5081502;28;20258;-77
2023/08/20 09:51:21;;;;;;;3.55;1.33;;;16.40;99.90;;;;;;5086808;28;20199;-78
2023/08/20 09:54:03;;;;;;;2.83;1.50;;;16.40;99.90;;;;;;5077450;28;20199;-77
2023/08/20 09:56:39;;;;;;;2.70;1.60;;;16.40;99.90;;;;;;5075768;28;20236;-77
2023/08/20 09:59:12;;;;;;;3.63;1.90;;;16.50;99.90;;;;;;5072644;28;20203;-78
2023/08/20 10:01:44;;;;;;;2.50;1.60;;;16.50;99.90;;;;;;5087996;28;20257;-78
2023/08/20 10:04:15;;;;;;;6.07;1.70;;;16.80;99.90;;;;;;5092613;28;20648;-77
2023/08/20 10:06:49;;;;;;;2.60;1.77;;;16.50;99.90;;;;;;5082193;28;20583;-76
2023/08/20 10:09:20;;;;;;;5.50;1.60;;;16.50;99.90;;;;;;5081629;28;20192;-78
2023/08/20 10:11:52;;;;;;;2.03;1.35;;;16.40;99.90;;;;;;5090762;28;20228;-76
2023/08/20 10:14:23;;;;;;;2.15;1.40;;;16.40;99.90;;;;;;5081749;28;20210;-77
2023/08/20 10:16:56;;;;;;;1.77;1.33;;;16.30;99.90;;;;;;5081637;28;20216;-77
2023/08/20 10:19:27;;;;;;;2.17;1.40;;;16.30;99.90;;;;;;5074989;28;20197;-77
2023/08/20 10:22:00;;;;;;;2.58;1.10;;;16.30;99.90;;;;;;5086361;28;20676;-78
2023/08/20 10:24:33;;;;;;;2.75;1.40;;;16.30;99.90;;;;;;5083384;28;20199;-77
2023/08/20 10:27:14;;;;;;;2.50;1.45;;;16.30;99.90;;;;;;5076754;28;20266;-78
2023/08/20 10:29:44;;;;;;;2.33;1.20;;;16.20;99.90;;;;;;5073512;28;20239;-77
2023/08/20 10:32:16;;;;;;;2.15;1.08;;;16.20;99.90;;;;;;5078776;28;20205;-77
2023/08/20 10:34:52;;;;;;;3.60;1.20;;;16.10;99.90;;;;;;5082842;28;20207;-77
2023/08/20 10:37:32;;;;;;;3.35;1.67;;;16.10;99.90;;;;;;5073914;28;20221;-78
2023/08/20 10:40:04;;;;;;;3.13;1.90;;;16.00;99.90;;;;;;5084974;28;20208;-77
2023/08/20 10:42:42;;;;;;;2.78;1.70;;;15.90;99.90;;;;;;5084820;28;20242;-78
2023/08/20 10:45:13;;;;;;;2.00;1.73;;;15.80;99.90;;;;;;5072296;28;20210;-78
2023/08/20 10:47:48;;;;;;;2.53;1.60;;;15.70;99.90;;;;;;5080294;28;20386;-78
2023/08/20 10:50:20;;;;;;;3.70;1.98;;;15.60;99.90;;;;;;5073254;28;20218;-77
2023/08/20 10:52:59;;;;;;;4.22;2.70;;;15.60;99.90;;;;;;5075865;28;20595;-77
2023/08/20 10:55:30;;;;;;;4.07;2.50;;;15.60;99.90;;;;;;5071907;28;20227;-77
2023/08/20 10:58:02;;;;;;;3.60;2.75;;;15.50;99.90;;;;;;5081168;28;20710;-78
2023/08/20 11:00:34;;;;;;;2.60;1.88;;;15.40;99.90;;;;;;5079634;28;20197;-76
2023/08/20 11:03:06;;;;;;;3.42;2.13;;;15.40;99.90;;;;;;5094093;28;20200;-77
2023/08/20 11:05:38;;;;;;;2.97;2.20;;;15.40;99.90;;;;;;5083266;28;20809;-76
2023/08/20 11:08:10;;;;;;;3.60;1.90;;;15.30;99.90;;;;;;5075863;28;20217;-76
2023/08/20 11:10:41;;;;;;;3.53;2.40;;;15.20;99.90;;;;;;5075952;28;20232;-77
2023/08/20 11:13:12;;;;;;;3.28;2.50;;;15.20;99.90;;;;;;5084609;28;20216;-78
2023/08/20 11:15:45;;;;;;;3.58;2.50;;;15.10;99.90;;;;;;5091753;28;20199;-77
2023/08/20 11:18:16;;;;;;;4.50;2.97;;;15.10;99.90;;;;;;5085878;28;20295;-77
2023/08/20 11:20:47;;;;;;;4.60;3.17;;;15.10;99.90;;;;;;5075509;28;20222;-76
2023/08/20 11:23:19;;;;;;;4.32;2.70;;;15.10;99.90;;;;;;5076188;28;20204;-76
2023/08/20 11:25:50;;;;;;;5.13;2.85;;;15.00;99.90;;;;;;5076413;28;20660;-76
2023/08/20 11:28:21;;;;;;;5.25;2.65;;;15.00;99.90;;;;;;5094203;28;20230;-74
2023/08/20 11:30:51;;;;;;;4.55;2.80;;;15.00;99.90;;;;;;5079394;28;20198;-76
2023/08/20 11:33:23;;;;;;;4.97;2.80;;;15.00;99.90;;;;;;5078396;28;20192;-76
2023/08/20 11:35:55;;;;;;;5.10;2.60;;;14.90;99.90;;;;;;5081896;28;20192;-76
2023/08/20 11:38:30;;;;;;;4.43;2.85;;;14.90;99.90;;;;;;5083775;28;20667;-76
2023/08/20 11:41:01;;;;;;;4.25;2.90;;;14.80;99.90;;;;;;5082068;28;20215;-76
2023/08/20 11:43:32;;;;;;;3.47;2.40;;;14.80;99.90;;;;;;5085805;28;20205;-76
2023/08/20 11:46:03;;;;;;;3.90;2.55;;;14.70;99.90;;;;;;5085806;28;20208;-76
2023/08/20 11:48:36;;;;;;;4.07;2.70;;;14.70;99.90;;;;;;5074611;28;20217;-75
2023/08/20 11:51:08;;;;;;;3.70;2.45;;;14.60;99.90;;;;;;5074642;28;20193;-76
2023/08/20 11:53:42;;;;;;;4.80;3.38;;;14.60;99.90;;;;;;5074305;28;20197;-77
2023/08/20 11:56:17;;;;;;;4.28;2.97;;;14.60;99.90;;;;;;5084618;28;20216;-76
2023/08/20 11:58:52;;;;;;;3.38;2.40;;;14.50;99.90;;;;;;5088106;28;20188;-76
2023/08/20 12:01:23;;;;;;;3.63;2.10;;;14.50;99.90;;;;;;5074720;28;20417;-76
2023/08/20 12:03:54;;;;;;;3.17;1.95;;;14.50;99.90;;;;;;5075808;28;20204;-77
2023/08/20 12:06:28;;;;;;;2.67;1.95;;;14.40;99.90;;;;;;5079201;28;20200;-77
2023/08/20 12:09:01;;;;;;;2.90;2.60;;;14.50;99.90;;;;;;5076400;28;20246;-76
2023/08/20 12:11:33;;;;;;;4.35;2.70;;;14.40;99.90;;;;;;5085709;28;20231;-76
2023/08/20 12:14:04;;;;;;;4.13;2.53;;;14.40;99.90;;;;;;5075484;28;20685;-75
2023/08/20 12:16:35;;;;;;;4.75;2.45;;;14.40;99.90;;;;;;5085478;28;20222;-75
2023/08/20 12:19:05;;;;;;;3.38;2.17;;;14.30;99.90;;;;;;5085761;28;20208;-77
2023/08/20 12:21:36;;;;;;;4.93;2.50;;;14.30;99.90;;;;;;5092476;28;20633;-77
2023/08/20 12:24:11;;;;;;;3.50;2.33;;;14.30;99.90;;;;;;5095022;28;20196;-76
2023/08/20 12:26:42;;;;;;;2.78;2.20;;;14.30;99.90;;;;;;5080317;28;20238;-75
2023/08/20 12:29:13;;;;;;;2.72;2.05;;;14.30;99.90;;;;;;5079711;28;20224;-78
2023/08/20 12:31:44;;;;;;;3.75;2.30;;;14.20;99.90;;;;;;5083252;28;20192;-77
2023/08/20 12:34:17;;;;;;;2.70;2.05;;;14.20;99.90;;;;;;5089259;28;20319;-76
2023/08/20 12:36:48;;;;;;;2.83;1.88;;;14.30;99.90;;;;;;5092715;28;20313;-77
2023/08/20 12:39:21;;;;;;;4.25;2.40;;;14.30;99.90;;;;;;5093416;28;20189;-77
2023/08/20 12:41:53;;;;;;;3.88;2.05;;;14.30;99.90;;;;;;5094057;28;20275;-77
2023/08/20 12:44:24;;;;;;;3.65;2.10;;;14.20;99.90;;;;;;5093251;28;20207;-77
2023/08/20 12:46:55;;;;;;;3.70;2.10;;;14.30;99.90;;;;;;5094166;28;20189;-77
2023/08/20 12:49:25;;;;;;;3.08;2.08;;;14.30;99.90;;;;;;5094000;28;20188;-76
2023/08/20 12:51:56;;;;;;;3.20;1.85;;;14.30;99.90;;;;;;5079024;28;20207;-78
2023/08/20 12:54:29;;;;;;;3.42;2.00;;;14.30;99.90;;;;;;5073619;28;20656;-77
2023/08/20 12:56:59;;;;;;;4.45;2.35;;;14.30;99.90;;;;;;5073822;28;20694;-77
2023/08/20 12:59:30;;;;;;;3.83;2.38;;;14.30;99.90;;;;;;5073446;28;20189;-77
2023/08/20 13:02:01;;;;;;;4.35;2.40;;;14.30;99.90;;;;;;5077023;28;20207;-77
2023/08/20 13:04:33;;;;;;;2.47;1.80;;;14.30;99.90;;;;;;5074979;28;20562;-77
2023/08/20 13:07:04;;;;;;;3.22;1.65;;;14.30;99.90;;;;;;5078137;28;20206;-76
2023/08/20 13:09:38;;;;;;;2.38;1.60;;;14.30;99.90;;;;;;5075352;28;20199;-76